sensor_id;sensor_type;location;lat;lon;timestamp;temperature;humidity
21481;DHT22;10902;48.158;8.634;2023-05-29T00:02:10;9.20;99.90
21481;DHT22;10902;48.158;8.634;2023-05-29T00:04:55;9.10;99.90
21481;DHT22;10902;48.158;8.634;2023-05-29T00:07:41;9.00;99.90
21481;DHT22;10902;48.158;8.634;2023-05-29T00:10:27;8.90;99.90
21481;DHT22;10902;48.158;8.634;2023-05-29T00:13:13;8.80;99.90
21481;DHT22;10902;48.158;8.634;2023-05-29T00:15:58;8.80;99.90
21481;DHT22;10902;48.158;8.634;2023-05-29T00:18:46;8.80;99.90
21481;DHT22;10902;48.158;8.634;2023-05-29T00:21:32;8.80;99.90
21481;DHT22;10902;48.158;8.634;2023-05-29T00:24:17;8.60;99.90
21481;DHT22;10902;48.158;8.634;2023-05-29T00:27:03;8.70;99.90
21481;DHT22;10902;48.158;8.634;2023-05-29T00:29:49;8.80;99.90
21481;DHT22;10902;48.158;8.634;2023-05-29T00:32:35;8.80;99.90
21481;DHT22;10902;48.158;8.634;2023-05-29T00:35:21;8.60;99.90
21481;DHT22;10902;48.158;8.634;2023-05-29T00:38:06;8.70;99.90
21481;DHT22;10902;48.158;8.634;2023-05-29T00:40:52;8.60;99.90
21481;DHT22;10902;48.158;8.634;2023-05-29T00:43:37;8.60;99.90
21481;DHT22;10902;48.158;8.634;2023-05-29T00:46:23;8.50;99.90
21481;DHT22;10902;48.158;8.634;2023-05-29T00:49:09;8.40;99.90
21481;DHT22;10902;48.158;8.634;2023-05-29T00:51:56;8.30;99.90
21481;DHT22;10902;48.158;8.634;2023-05-29T00:54:44;8.30;99.90
21481;DHT22;10902;48.158;8.634;2023-05-29T00:57:33;8.30;99.90
21481;DHT22;10902;48.158;8.634;2023-05-29T01:00:19;8.30;99.90
21481;DHT22;10902;48.158;8.634;2023-05-29T01:03:06;8.10;99.90
21481;DHT22;10902;48.158;8.634;2023-05-29T01:05:52;7.90;99.90
21481;DHT22;10902;48.158;8.634;2023-05-29T01:08:38;7.80;99.90
21481;DHT22;10902;48.158;8.634;2023-05-29T01:11:39;7.80;99.90
21481;DHT22;10902;48.158;8.634;2023-05-29T01:17:49;7.50;99.90
21481;DHT22;10902;48.158;8.634;2023-05-29T01:20:42;7.40;99.90
21481;DHT22;10902;48.158;8.634;2023-05-29T01:29:34;7.30;99.90
21481;DHT22;10902;48.158;8.634;2023-05-29T01:32:20;7.30;99.90
21481;DHT22;10902;48.158;8.634;2023-05-29T01:35:07;7.40;99.90
21481;DHT22;10902;48.158;8.634;2023-05-29T01:37:53;7.40;99.90
21481;DHT22;10902;48.158;8.634;2023-05-29T01:40:38;7.30;99.90
21481;DHT22;10902;48.158;8.634;2023-05-29T01:43:24;7.30;99.90
21481;DHT22;10902;48.158;8.634;2023-05-29T01:46:14;7.20;99.90
21481;DHT22;10902;48.158;8.634;2023-05-29T01:49:00;7.20;99.90
21481;DHT22;10902;48.158;8.634;2023-05-29T01:51:45;7.20;99.90
21481;DHT22;10902;48.158;8.634;2023-05-29T01:54:31;7.20;99.90
21481;DHT22;10902;48.158;8.634;2023-05-29T01:57:17;7.10;99.90
21481;DHT22;10902;48.158;8.634;2023-05-29T02:00:03;7.00;99.90
21481;DHT22;10902;48.158;8.634;2023-05-29T02:02:54;6.90;99.90
21481;DHT22;10902;48.158;8.634;2023-05-29T02:05:39;6.90;99.90
21481;DHT22;10902;48.158;8.634;2023-05-29T02:08:26;6.80;99.90
21481;DHT22;10902;48.158;8.634;2023-05-29T02:11:12;6.80;99.90
21481;DHT22;10902;48.158;8.634;2023-05-29T02:13:57;6.90;99.90
21481;DHT22;10902;48.158;8.634;2023-05-29T02:16:43;7.00;99.90
21481;DHT22;10902;48.158;8.634;2023-05-29T02:19:29;7.10;99.90
21481;DHT22;10902;48.158;8.634;2023-05-29T02:22:15;7.00;99.90
21481;DHT22;10902;48.158;8.634;2023-05-29T02:25:01;7.00;99.90
21481;DHT22;10902;48.158;8.634;2023-05-29T02:27:46;6.90;99.90
21481;DHT22;10902;48.158;8.634;2023-05-29T02:30:32;6.90;99.90
21481;DHT22;10902;48.158;8.634;2023-05-29T02:33:18;6.80;99.90
21481;DHT22;10902;48.158;8.634;2023-05-29T02:36:04;6.70;99.90
21481;DHT22;10902;48.158;8.634;2023-05-29T02:38:49;6.60;99.90
21481;DHT22;10902;48.158;8.634;2023-05-29T02:41:35;6.50;99.90
21481;DHT22;10902;48.158;8.634;2023-05-29T02:44:21;6.60;99.90
21481;DHT22;10902;48.158;8.634;2023-05-29T02:47:06;6.60;99.90
21481;DHT22;10902;48.158;8.634;2023-05-29T02:49:52;6.60;99.90
21481;DHT22;10902;48.158;8.634;2023-05-29T02:52:37;6.60;99.90
21481;DHT22;10902;48.158;8.634;2023-05-29T02:55:23;6.60;99.90
21481;DHT22;10902;48.158;8.634;2023-05-29T02:58:08;6.50;99.90
21481;DHT22;10902;48.158;8.634;2023-05-29T03:00:54;6.40;99.90
21481;DHT22;10902;48.158;8.634;2023-05-29T03:03:39;6.30;99.90
21481;DHT22;10902;48.158;8.634;2023-05-29T03:06:25;6.30;99.90
21481;DHT22;10902;48.158;8.634;2023-05-29T03:09:11;6.20;99.90
21481;DHT22;10902;48.158;8.634;2023-05-29T03:11:58;6.20;99.90
21481;DHT22;10902;48.158;8.634;2023-05-29T03:14:46;6.20;99.90
21481;DHT22;10902;48.158;8.634;2023-05-29T03:17:32;6.20;99.90
21481;DHT22;10902;48.158;8.634;2023-05-29T03:20:17;6.10;99.90
21481;DHT22;10902;48.158;8.634;2023-05-29T03:23:03;6.20;99.90
21481;DHT22;10902;48.158;8.634;2023-05-29T03:25:48;6.20;99.90
21481;DHT22;10902;48.158;8.634;2023-05-29T03:28:34;6.10;99.90
21481;DHT22;10902;48.158;8.634;2023-05-29T03:31:20;6.10;99.90
21481;DHT22;10902;48.158;8.634;2023-05-29T03:34:05;5.90;99.90
21481;DHT22;10902;48.158;8.634;2023-05-29T03:36:51;6.00;99.90
21481;DHT22;10902;48.158;8.634;2023-05-29T03:39:36;6.00;99.90
21481;DHT22;10902;48.158;8.634;2023-05-29T03:42:22;6.00;99.90
21481;DHT22;10902;48.158;8.634;2023-05-29T03:45:08;6.00;99.90
21481;DHT22;10902;48.158;8.634;2023-05-29T03:47:53;6.00;99.90
21481;DHT22;10902;48.158;8.634;2023-05-29T03:50:39;6.10;99.90
21481;DHT22;10902;48.158;8.634;2023-05-29T03:53:25;6.10;99.90
21481;DHT22;10902;48.158;8.634;2023-05-29T03:56:10;6.00;99.90
21481;DHT22;10902;48.158;8.634;2023-05-29T03:58:56;5.90;99.90
21481;DHT22;10902;48.158;8.634;2023-05-29T04:01:41;5.90;99.90
21481;DHT22;10902;48.158;8.634;2023-05-29T04:04:27;5.90;99.90
21481;DHT22;10902;48.158;8.634;2023-05-29T04:07:13;5.90;99.90
21481;DHT22;10902;48.158;8.634;2023-05-29T04:09:58;5.80;99.90
21481;DHT22;10902;48.158;8.634;2023-05-29T04:12:44;6.00;99.90
21481;DHT22;10902;48.158;8.634;2023-05-29T04:15:29;6.10;99.90
21481;DHT22;10902;48.158;8.634;2023-05-29T04:18:15;6.10;99.90
21481;DHT22;10902;48.158;8.634;2023-05-29T04:21:01;6.10;99.90
21481;DHT22;10902;48.158;8.634;2023-05-29T04:23:47;6.10;99.90
21481;DHT22;10902;48.158;8.634;2023-05-29T04:26:32;6.10;99.90
21481;DHT22;10902;48.158;8.634;2023-05-29T04:29:18;6.10;99.90
21481;DHT22;10902;48.158;8.634;2023-05-29T04:32:04;6.10;99.90
21481;DHT22;10902;48.158;8.634;2023-05-29T04:34:50;6.10;99.90
21481;DHT22;10902;48.158;8.634;2023-05-29T04:37:36;6.10;99.90
21481;DHT22;10902;48.158;8.634;2023-05-29T04:40:24;6.20;99.90
21481;DHT22;10902;48.158;8.634;2023-05-29T04:43:10;6.30;99.90
21481;DHT22;10902;48.158;8.634;2023-05-29T04:45:56;6.50;99.90
21481;DHT22;10902;48.158;8.634;2023-05-29T04:48:43;6.60;99.90
21481;DHT22;10902;48.158;8.634;2023-05-29T04:51:29;6.60;99.90
21481;DHT22;10902;48.158;8.634;2023-05-29T04:54:15;6.60;99.90
21481;DHT22;10902;48.158;8.634;2023-05-29T04:57:01;6.70;99.90
21481;DHT22;10902;48.158;8.634;2023-05-29T04:59:47;6.70;99.90
21481;DHT22;10902;48.158;8.634;2023-05-29T05:02:33;6.80;99.90
21481;DHT22;10902;48.158;8.634;2023-05-29T05:05:19;6.90;99.90
21481;DHT22;10902;48.158;8.634;2023-05-29T05:08:05;7.00;99.90
21481;DHT22;10902;48.158;8.634;2023-05-29T05:10:51;7.10;99.90
21481;DHT22;10902;48.158;8.634;2023-05-29T05:13:36;7.20;99.90
21481;DHT22;10902;48.158;8.634;2023-05-29T05:16:22;7.30;99.90
21481;DHT22;10902;48.158;8.634;2023-05-29T05:19:07;7.40;99.90
21481;DHT22;10902;48.158;8.634;2023-05-29T05:21:53;7.50;99.90
21481;DHT22;10902;48.158;8.634;2023-05-29T05:24:38;7.60;99.90
21481;DHT22;10902;48.158;8.634;2023-05-29T05:27:24;7.70;99.90
21481;DHT22;10902;48.158;8.634;2023-05-29T05:30:10;7.80;99.90
21481;DHT22;10902;48.158;8.634;2023-05-29T05:32:56;7.90;99.90
21481;DHT22;10902;48.158;8.634;2023-05-29T05:35:41;8.10;99.90
21481;DHT22;10902;48.158;8.634;2023-05-29T05:38:27;8.20;99.90
21481;DHT22;10902;48.158;8.634;2023-05-29T05:41:13;8.40;99.90
21481;DHT22;10902;48.158;8.634;2023-05-29T05:43:58;8.70;99.90
21481;DHT22;10902;48.158;8.634;2023-05-29T05:46:44;8.80;99.90
21481;DHT22;10902;48.158;8.634;2023-05-29T05:49:30;9.00;99.90
21481;DHT22;10902;48.158;8.634;2023-05-29T05:52:16;9.10;99.90
21481;DHT22;10902;48.158;8.634;2023-05-29T05:55:02;9.20;99.90
21481;DHT22;10902;48.158;8.634;2023-05-29T05:57:48;9.30;99.90
21481;DHT22;10902;48.158;8.634;2023-05-29T06:00:34;9.50;99.90
21481;DHT22;10902;48.158;8.634;2023-05-29T06:03:19;9.60;99.90
21481;DHT22;10902;48.158;8.634;2023-05-29T06:06:06;9.90;99.90
21481;DHT22;10902;48.158;8.634;2023-05-29T06:08:52;10.30;99.90
21481;DHT22;10902;48.158;8.634;2023-05-29T06:11:38;10.50;99.90
21481;DHT22;10902;48.158;8.634;2023-05-29T06:14:24;10.70;99.90
21481;DHT22;10902;48.158;8.634;2023-05-29T06:17:10;10.90;99.90
21481;DHT22;10902;48.158;8.634;2023-05-29T06:19:55;11.10;99.90
21481;DHT22;10902;48.158;8.634;2023-05-29T06:22:41;11.40;99.90
21481;DHT22;10902;48.158;8.634;2023-05-29T06:25:27;11.70;99.90
21481;DHT22;10902;48.158;8.634;2023-05-29T06:28:18;12.00;99.90
21481;DHT22;10902;48.158;8.634;2023-05-29T06:31:04;12.30;99.90
21481;DHT22;10902;48.158;8.634;2023-05-29T06:33:49;12.40;99.90
21481;DHT22;10902;48.158;8.634;2023-05-29T06:36:35;12.50;99.90
21481;DHT22;10902;48.158;8.634;2023-05-29T06:39:21;12.70;99.90
21481;DHT22;10902;48.158;8.634;2023-05-29T06:42:07;12.80;99.90
21481;DHT22;10902;48.158;8.634;2023-05-29T06:44:53;12.90;99.90
21481;DHT22;10902;48.158;8.634;2023-05-29T06:47:39;12.90;99.90
21481;DHT22;10902;48.158;8.634;2023-05-29T06:50:25;13.20;99.90
21481;DHT22;10902;48.158;8.634;2023-05-29T06:53:11;13.20;99.90
21481;DHT22;10902;48.158;8.634;2023-05-29T06:55:56;13.30;99.90
21481;DHT22;10902;48.158;8.634;2023-05-29T06:58:42;13.60;99.90
21481;DHT22;10902;48.158;8.634;2023-05-29T07:01:27;13.80;99.90
21481;DHT22;10902;48.158;8.634;2023-05-29T07:04:13;13.90;99.90
21481;DHT22;10902;48.158;8.634;2023-05-29T07:06:58;14.10;99.90
21481;DHT22;10902;48.158;8.634;2023-05-29T07:09:44;14.30;99.90
21481;DHT22;10902;48.158;8.634;2023-05-29T07:12:30;14.50;99.90
21481;DHT22;10902;48.158;8.634;2023-05-29T07:15:15;14.70;99.90
21481;DHT22;10902;48.158;8.634;2023-05-29T07:18:01;14.80;99.90
21481;DHT22;10902;48.158;8.634;2023-05-29T07:20:46;14.90;99.90
21481;DHT22;10902;48.158;8.634;2023-05-29T07:23:32;15.10;99.90
21481;DHT22;10902;48.158;8.634;2023-05-29T07:26:18;15.20;99.90
21481;DHT22;10902;48.158;8.634;2023-05-29T07:29:03;15.30;99.90
21481;DHT22;10902;48.158;8.634;2023-05-29T07:31:49;15.40;99.90
21481;DHT22;10902;48.158;8.634;2023-05-29T07:34:35;15.60;99.90
21481;DHT22;10902;48.158;8.634;2023-05-29T07:37:21;15.70;99.90
21481;DHT22;10902;48.158;8.634;2023-05-29T07:40:07;15.90;99.90
21481;DHT22;10902;48.158;8.634;2023-05-29T07:42:53;16.00;99.90
21481;DHT22;10902;48.158;8.634;2023-05-29T07:45:38;16.20;99.90
21481;DHT22;10902;48.158;8.634;2023-05-29T07:48:24;16.40;99.90
21481;DHT22;10902;48.158;8.634;2023-05-29T07:51:09;16.70;99.90
21481;DHT22;10902;48.158;8.634;2023-05-29T07:53:55;16.80;99.90
21481;DHT22;10902;48.158;8.634;2023-05-29T07:56:41;16.90;99.90
21481;DHT22;10902;48.158;8.634;2023-05-29T07:59:29;17.10;99.90
21481;DHT22;10902;48.158;8.634;2023-05-29T08:02:15;17.10;99.90
21481;DHT22;10902;48.158;8.634;2023-05-29T08:05:03;17.30;99.90
21481;DHT22;10902;48.158;8.634;2023-05-29T08:07:49;17.30;99.90
21481;DHT22;10902;48.158;8.634;2023-05-29T08:10:34;17.40;99.90
21481;DHT22;10902;48.158;8.634;2023-05-29T08:13:20;17.50;99.90
21481;DHT22;10902;48.158;8.634;2023-05-29T08:16:06;17.70;99.90
21481;DHT22;10902;48.158;8.634;2023-05-29T08:18:51;17.80;99.90
21481;DHT22;10902;48.158;8.634;2023-05-29T08:21:37;18.00;99.90
21481;DHT22;10902;48.158;8.634;2023-05-29T08:24:23;18.20;99.90
21481;DHT22;10902;48.158;8.634;2023-05-29T08:27:08;18.40;99.90
21481;DHT22;10902;48.158;8.634;2023-05-29T08:29:54;18.50;99.90
21481;DHT22;10902;48.158;8.634;2023-05-29T08:32:40;18.50;99.90
21481;DHT22;10902;48.158;8.634;2023-05-29T08:35:25;18.50;99.90
21481;DHT22;10902;48.158;8.634;2023-05-29T08:38:11;18.60;99.90
21481;DHT22;10902;48.158;8.634;2023-05-29T08:40:57;18.80;99.90
21481;DHT22;10902;48.158;8.634;2023-05-29T08:43:46;19.00;99.90
21481;DHT22;10902;48.158;8.634;2023-05-29T08:46:33;19.30;99.90
21481;DHT22;10902;48.158;8.634;2023-05-29T08:49:20;19.40;99.90
21481;DHT22;10902;48.158;8.634;2023-05-29T08:52:18;19.30;99.90
21481;DHT22;10902;48.158;8.634;2023-05-29T08:55:05;19.50;99.90
21481;DHT22;10902;48.158;8.634;2023-05-29T08:57:51;19.80;99.90
21481;DHT22;10902;48.158;8.634;2023-05-29T09:00:37;20.00;99.90
21481;DHT22;10902;48.158;8.634;2023-05-29T09:03:22;20.30;99.90
21481;DHT22;10902;48.158;8.634;2023-05-29T09:06:08;20.60;99.90
21481;DHT22;10902;48.158;8.634;2023-05-29T09:08:54;20.30;99.90
21481;DHT22;10902;48.158;8.634;2023-05-29T09:11:41;20.90;99.90
21481;DHT22;10902;48.158;8.634;2023-05-29T09:14:40;21.20;99.90
21481;DHT22;10902;48.158;8.634;2023-05-29T09:17:30;21.80;99.90
21481;DHT22;10902;48.158;8.634;2023-05-29T09:20:18;21.50;99.90
21481;DHT22;10902;48.158;8.634;2023-05-29T09:23:08;21.90;99.90
21481;DHT22;10902;48.158;8.634;2023-05-29T09:25:54;22.20;99.90
21481;DHT22;10902;48.158;8.634;2023-05-29T09:28:40;22.80;99.90
21481;DHT22;10902;48.158;8.634;2023-05-29T09:31:25;22.80;99.90
21481;DHT22;10902;48.158;8.634;2023-05-29T09:34:11;23.10;99.90
21481;DHT22;10902;48.158;8.634;2023-05-29T09:37:02;23.30;99.90
21481;DHT22;10902;48.158;8.634;2023-05-29T09:39:53;23.00;99.90
21481;DHT22;10902;48.158;8.634;2023-05-29T09:42:39;22.90;99.90
21481;DHT22;10902;48.158;8.634;2023-05-29T09:45:25;22.80;99.90
21481;DHT22;10902;48.158;8.634;2023-05-29T09:48:31;22.80;99.90
21481;DHT22;10902;48.158;8.634;2023-05-29T09:51:23;23.10;99.90
21481;DHT22;10902;48.158;8.634;2023-05-29T09:54:16;24.00;99.90
21481;DHT22;10902;48.158;8.634;2023-05-29T09:57:03;23.50;99.90
21481;DHT22;10902;48.158;8.634;2023-05-29T09:59:50;23.40;99.90
21481;DHT22;10902;48.158;8.634;2023-05-29T10:02:37;22.90;99.90
21481;DHT22;10902;48.158;8.634;2023-05-29T10:05:25;23.20;99.90
21481;DHT22;10902;48.158;8.634;2023-05-29T10:08:15;23.70;99.90
21481;DHT22;10902;48.158;8.634;2023-05-29T10:11:01;24.60;99.90
21481;DHT22;10902;48.158;8.634;2023-05-29T10:13:48;24.40;99.90
21481;DHT22;10902;48.158;8.634;2023-05-29T10:16:35;24.30;99.90
21481;DHT22;10902;48.158;8.634;2023-05-29T10:19:29;24.70;99.90
21481;DHT22;10902;48.158;8.634;2023-05-29T10:22:19;24.70;99.90
21481;DHT22;10902;48.158;8.634;2023-05-29T10:25:07;23.90;99.90
21481;DHT22;10902;48.158;8.634;2023-05-29T10:27:55;23.90;99.90
21481;DHT22;10902;48.158;8.634;2023-05-29T10:30:53;24.00;99.90
21481;DHT22;10902;48.158;8.634;2023-05-29T10:36:46;25.20;99.90
21481;DHT22;10902;48.158;8.634;2023-05-29T10:39:35;25.00;99.90
21481;DHT22;10902;48.158;8.634;2023-05-29T10:42:40;24.60;99.90
21481;DHT22;10902;48.158;8.634;2023-05-29T10:50:59;25.70;99.90
21481;DHT22;10902;48.158;8.634;2023-05-29T10:53:44;25.90;99.90
21481;DHT22;10902;48.158;8.634;2023-05-29T10:56:31;26.30;99.90
21481;DHT22;10902;48.158;8.634;2023-05-29T10:59:17;26.20;99.90
21481;DHT22;10902;48.158;8.634;2023-05-29T11:02:04;26.40;99.90
21481;DHT22;10902;48.158;8.634;2023-05-29T11:05:05;26.20;99.90
21481;DHT22;10902;48.158;8.634;2023-05-29T11:07:52;25.80;99.90
21481;DHT22;10902;48.158;8.634;2023-05-29T11:10:54;26.40;99.90
21481;DHT22;10902;48.158;8.634;2023-05-29T11:13:40;26.50;99.90
21481;DHT22;10902;48.158;8.634;2023-05-29T11:19:16;26.20;99.90
21481;DHT22;10902;48.158;8.634;2023-05-29T11:22:09;26.60;99.90
21481;DHT22;10902;48.158;8.634;2023-05-29T11:25:00;27.20;99.90
21481;DHT22;10902;48.158;8.634;2023-05-29T11:27:46;27.30;99.90
21481;DHT22;10902;48.158;8.634;2023-05-29T11:30:40;27.20;99.90
21481;DHT22;10902;48.158;8.634;2023-05-29T11:33:27;27.30;99.90
21481;DHT22;10902;48.158;8.634;2023-05-29T11:36:14;28.10;99.90
21481;DHT22;10902;48.158;8.634;2023-05-29T11:39:01;27.90;99.90
21481;DHT22;10902;48.158;8.634;2023-05-29T11:41:50;28.10;99.10
21481;DHT22;10902;48.158;8.634;2023-05-29T11:44:37;28.60;99.90
21481;DHT22;10902;48.158;8.634;2023-05-29T11:47:22;28.40;99.90
21481;DHT22;10902;48.158;8.634;2023-05-29T11:50:20;28.00;99.90
21481;DHT22;10902;48.158;8.634;2023-05-29T11:53:07;28.70;99.90
21481;DHT22;10902;48.158;8.634;2023-05-29T11:56:06;28.40;99.90
21481;DHT22;10902;48.158;8.634;2023-05-29T11:58:52;28.00;99.90
21481;DHT22;10902;48.158;8.634;2023-05-29T12:01:41;27.80;99.90
21481;DHT22;10902;48.158;8.634;2023-05-29T12:04:28;27.90;99.90
21481;DHT22;10902;48.158;8.634;2023-05-29T12:07:18;27.80;99.90
21481;DHT22;10902;48.158;8.634;2023-05-29T12:12:59;27.90;99.90
21481;DHT22;10902;48.158;8.634;2023-05-29T12:15:47;27.90;99.90
21481;DHT22;10902;48.158;8.634;2023-05-29T12:18:34;28.00;99.90
21481;DHT22;10902;48.158;8.634;2023-05-29T12:21:21;27.90;99.90
21481;DHT22;10902;48.158;8.634;2023-05-29T12:24:07;28.50;99.90
21481;DHT22;10902;48.158;8.634;2023-05-29T12:26:53;27.90;99.90
21481;DHT22;10902;48.158;8.634;2023-05-29T12:29:38;28.00;99.90
21481;DHT22;10902;48.158;8.634;2023-05-29T12:32:24;29.60;99.90
21481;DHT22;10902;48.158;8.634;2023-05-29T12:35:23;28.80;99.90
21481;DHT22;10902;48.158;8.634;2023-05-29T12:38:09;28.70;99.90
21481;DHT22;10902;48.158;8.634;2023-05-29T12:40:55;29.40;99.90
21481;DHT22;10902;48.158;8.634;2023-05-29T12:43:40;29.10;99.90
21481;DHT22;10902;48.158;8.634;2023-05-29T12:46:26;29.10;99.90
21481;DHT22;10902;48.158;8.634;2023-05-29T12:49:16;28.90;99.90
21481;DHT22;10902;48.158;8.634;2023-05-29T12:52:05;29.10;99.90
21481;DHT22;10902;48.158;8.634;2023-05-29T12:54:56;28.10;99.90
21481;DHT22;10902;48.158;8.634;2023-05-29T12:57:42;28.80;99.90
21481;DHT22;10902;48.158;8.634;2023-05-29T13:00:30;28.80;99.90
21481;DHT22;10902;48.158;8.634;2023-05-29T13:03:16;28.40;99.90
21481;DHT22;10902;48.158;8.634;2023-05-29T13:06:02;26.90;99.90
21481;DHT22;10902;48.158;8.634;2023-05-29T13:08:47;27.30;99.90
21481;DHT22;10902;48.158;8.634;2023-05-29T13:11:33;28.90;99.90
21481;DHT22;10902;48.158;8.634;2023-05-29T13:14:18;28.20;99.90
21481;DHT22;10902;48.158;8.634;2023-05-29T13:17:05;29.30;99.90
21481;DHT22;10902;48.158;8.634;2023-05-29T13:19:50;29.00;99.90
21481;DHT22;10902;48.158;8.634;2023-05-29T13:22:37;29.20;99.90
21481;DHT22;10902;48.158;8.634;2023-05-29T13:25:23;29.10;99.90
21481;DHT22;10902;48.158;8.634;2023-05-29T13:28:10;28.40;99.90
21481;DHT22;10902;48.158;8.634;2023-05-29T13:30:56;28.50;99.90
21481;DHT22;10902;48.158;8.634;2023-05-29T13:33:42;29.60;99.90
21481;DHT22;10902;48.158;8.634;2023-05-29T13:36:27;28.80;99.90
21481;DHT22;10902;48.158;8.634;2023-05-29T13:39:13;28.90;99.90
21481;DHT22;10902;48.158;8.634;2023-05-29T13:41:58;28.60;99.90
21481;DHT22;10902;48.158;8.634;2023-05-29T13:44:45;29.00;99.90
21481;DHT22;10902;48.158;8.634;2023-05-29T13:47:30;29.00;99.90
21481;DHT22;10902;48.158;8.634;2023-05-29T13:50:17;30.10;99.90
21481;DHT22;10902;48.158;8.634;2023-05-29T13:53:03;29.50;99.90
21481;DHT22;10902;48.158;8.634;2023-05-29T13:55:48;29.50;99.90
21481;DHT22;10902;48.158;8.634;2023-05-29T13:58:34;29.80;99.90
21481;DHT22;10902;48.158;8.634;2023-05-29T14:01:20;29.10;99.90
21481;DHT22;10902;48.158;8.634;2023-05-29T14:04:06;29.80;99.90
21481;DHT22;10902;48.158;8.634;2023-05-29T14:06:52;29.70;99.90
21481;DHT22;10902;48.158;8.634;2023-05-29T14:09:38;29.00;99.70
21481;DHT22;10902;48.158;8.634;2023-05-29T14:12:23;29.40;99.90
21481;DHT22;10902;48.158;8.634;2023-05-29T14:15:10;29.90;99.80
21481;DHT22;10902;48.158;8.634;2023-05-29T14:17:55;29.60;98.70
21481;DHT22;10902;48.158;8.634;2023-05-29T14:20:41;30.40;99.00
21481;DHT22;10902;48.158;8.634;2023-05-29T14:23:26;29.80;98.80
21481;DHT22;10902;48.158;8.634;2023-05-29T14:26:12;29.70;98.60
21481;DHT22;10902;48.158;8.634;2023-05-29T14:28:58;29.70;98.10
21481;DHT22;10902;48.158;8.634;2023-05-29T14:31:44;30.10;97.20
21481;DHT22;10902;48.158;8.634;2023-05-29T14:34:29;29.70;96.50
21481;DHT22;10902;48.158;8.634;2023-05-29T14:37:15;30.00;96.40
21481;DHT22;10902;48.158;8.634;2023-05-29T14:40:01;29.80;96.40
21481;DHT22;10902;48.158;8.634;2023-05-29T14:42:46;29.60;95.90
21481;DHT22;10902;48.158;8.634;2023-05-29T14:45:32;30.00;96.20
21481;DHT22;10902;48.158;8.634;2023-05-29T14:48:18;30.20;95.50
21481;DHT22;10902;48.158;8.634;2023-05-29T14:51:03;29.20;95.90
21481;DHT22;10902;48.158;8.634;2023-05-29T14:53:49;29.70;95.40
21481;DHT22;10902;48.158;8.634;2023-05-29T14:56:34;29.80;95.40
21481;DHT22;10902;48.158;8.634;2023-05-29T14:59:20;29.50;95.20
21481;DHT22;10902;48.158;8.634;2023-05-29T15:02:06;29.40;94.70
21481;DHT22;10902;48.158;8.634;2023-05-29T15:04:51;29.20;93.70
21481;DHT22;10902;48.158;8.634;2023-05-29T15:07:37;30.10;93.90
21481;DHT22;10902;48.158;8.634;2023-05-29T15:10:24;30.40;93.20
21481;DHT22;10902;48.158;8.634;2023-05-29T15:13:09;30.10;92.90
21481;DHT22;10902;48.158;8.634;2023-05-29T15:15:56;29.40;92.50
21481;DHT22;10902;48.158;8.634;2023-05-29T15:18:44;29.10;92.90
21481;DHT22;10902;48.158;8.634;2023-05-29T15:21:30;29.90;93.50
21481;DHT22;10902;48.158;8.634;2023-05-29T15:24:16;28.80;93.90
21481;DHT22;10902;48.158;8.634;2023-05-29T15:27:02;28.70;93.50
21481;DHT22;10902;48.158;8.634;2023-05-29T15:29:47;29.20;93.50
21481;DHT22;10902;48.158;8.634;2023-05-29T15:32:33;28.30;93.00
21481;DHT22;10902;48.158;8.634;2023-05-29T15:35:19;29.00;93.00
21481;DHT22;10902;48.158;8.634;2023-05-29T15:38:05;29.90;92.80
21481;DHT22;10902;48.158;8.634;2023-05-29T15:40:50;29.40;92.90
21481;DHT22;10902;48.158;8.634;2023-05-29T15:43:36;29.30;92.40
21481;DHT22;10902;48.158;8.634;2023-05-29T15:46:21;30.40;92.60
21481;DHT22;10902;48.158;8.634;2023-05-29T15:49:09;30.20;92.30
21481;DHT22;10902;48.158;8.634;2023-05-29T15:51:54;31.00;91.80
21481;DHT22;10902;48.158;8.634;2023-05-29T15:54:40;29.90;90.90
21481;DHT22;10902;48.158;8.634;2023-05-29T15:57:25;29.60;91.80
21481;DHT22;10902;48.158;8.634;2023-05-29T16:00:11;30.20;91.20
21481;DHT22;10902;48.158;8.634;2023-05-29T16:02:57;29.20;90.90
21481;DHT22;10902;48.158;8.634;2023-05-29T16:05:43;28.30;91.10
21481;DHT22;10902;48.158;8.634;2023-05-29T16:08:28;28.50;91.10
21481;DHT22;10902;48.158;8.634;2023-05-29T16:11:14;29.50;91.60
21481;DHT22;10902;48.158;8.634;2023-05-29T16:14:00;29.40;91.80
21481;DHT22;10902;48.158;8.634;2023-05-29T16:16:46;28.70;90.70
21481;DHT22;10902;48.158;8.634;2023-05-29T16:19:31;28.80;91.40
21481;DHT22;10902;48.158;8.634;2023-05-29T16:22:17;28.70;91.20
21481;DHT22;10902;48.158;8.634;2023-05-29T16:25:03;29.10;90.40
21481;DHT22;10902;48.158;8.634;2023-05-29T16:27:49;29.00;90.60
21481;DHT22;10902;48.158;8.634;2023-05-29T16:30:34;28.80;91.20
21481;DHT22;10902;48.158;8.634;2023-05-29T16:33:20;28.30;91.40
21481;DHT22;10902;48.158;8.634;2023-05-29T16:36:06;28.30;91.30
21481;DHT22;10902;48.158;8.634;2023-05-29T16:38:52;29.50;91.60
21481;DHT22;10902;48.158;8.634;2023-05-29T16:41:37;29.10;90.90
21481;DHT22;10902;48.158;8.634;2023-05-29T16:44:23;28.60;90.90
21481;DHT22;10902;48.158;8.634;2023-05-29T16:47:09;28.20;90.50
21481;DHT22;10902;48.158;8.634;2023-05-29T16:49:54;27.90;90.80
21481;DHT22;10902;48.158;8.634;2023-05-29T16:52:40;28.20;91.80
21481;DHT22;10902;48.158;8.634;2023-05-29T16:55:26;28.70;91.20
21481;DHT22;10902;48.158;8.634;2023-05-29T16:58:12;28.90;90.70
21481;DHT22;10902;48.158;8.634;2023-05-29T17:00:58;27.90;90.00
21481;DHT22;10902;48.158;8.634;2023-05-29T17:03:43;27.80;90.50
21481;DHT22;10902;48.158;8.634;2023-05-29T17:06:29;27.70;90.10
21481;DHT22;10902;48.158;8.634;2023-05-29T17:09:15;27.60;90.60
21481;DHT22;10902;48.158;8.634;2023-05-29T17:12:01;27.70;90.90
21481;DHT22;10902;48.158;8.634;2023-05-29T17:14:47;27.90;90.80
21481;DHT22;10902;48.158;8.634;2023-05-29T17:17:34;27.60;90.50
21481;DHT22;10902;48.158;8.634;2023-05-29T17:20:19;28.20;90.90
21481;DHT22;10902;48.158;8.634;2023-05-29T17:23:05;28.50;90.90
21481;DHT22;10902;48.158;8.634;2023-05-29T17:25:51;28.60;90.90
21481;DHT22;10902;48.158;8.634;2023-05-29T17:28:37;29.00;91.00
21481;DHT22;10902;48.158;8.634;2023-05-29T17:31:23;27.90;91.20
21481;DHT22;10902;48.158;8.634;2023-05-29T17:34:08;27.80;91.10
21481;DHT22;10902;48.158;8.634;2023-05-29T17:36:55;26.70;91.10
21481;DHT22;10902;48.158;8.634;2023-05-29T17:39:40;26.80;91.70
21481;DHT22;10902;48.158;8.634;2023-05-29T17:42:26;27.10;91.30
21481;DHT22;10902;48.158;8.634;2023-05-29T17:45:11;26.80;91.30
21481;DHT22;10902;48.158;8.634;2023-05-29T17:47:59;27.00;91.60
21481;DHT22;10902;48.158;8.634;2023-05-29T17:50:44;27.20;91.20
21481;DHT22;10902;48.158;8.634;2023-05-29T17:53:30;27.00;91.40
21481;DHT22;10902;48.158;8.634;2023-05-29T17:56:17;26.70;91.60
21481;DHT22;10902;48.158;8.634;2023-05-29T17:59:03;26.50;91.10
21481;DHT22;10902;48.158;8.634;2023-05-29T18:01:48;26.10;91.30